sensor_id;sensor_type;location;lat;lon;timestamp;pressure;altitude;pressure_sealevel;temperature;humidity
62544;BME280;48597;49.030;1.822;2023-05-09T00:02:07;100990.22;;;20.71;50.99
62544;BME280;48597;49.030;1.822;2023-05-09T00:04:33;100988.59;;;20.70;50.88
62544;BME280;48597;49.030;1.822;2023-05-09T00:07:00;100988.59;;;20.70;50.96
62544;BME280;48597;49.030;1.822;2023-05-09T00:09:25;100991.47;;;20.70;51.04
62544;BME280;48597;49.030;1.822;2023-05-09T00:11:51;100994.34;;;20.70;51.09
62544;BME280;48597;49.030;1.822;2023-05-09T00:14:16;100982.06;;;20.69;51.04
62544;BME280;48597;49.030;1.822;2023-05-09T00:16:43;100978.41;;;20.69;51.03
62544;BME280;48597;49.030;1.822;2023-05-09T00:19:08;100974.75;;;20.68;51.05
62544;BME280;48597;49.030;1.822;2023-05-09T00:21:34;100981.28;;;20.69;51.07
62544;BME280;48597;49.030;1.822;2023-05-09T00:23:59;100973.94;;;20.68;50.94
62544;BME280;48597;49.030;1.822;2023-05-09T00:26:25;100966.16;;;20.68;50.97
62544;BME280;48597;49.030;1.822;2023-05-09T00:28:51;100967.41;;;20.67;50.71
62544;BME280;48597;49.030;1.822;2023-05-09T00:31:16;100961.66;;;20.67;50.94
62544;BME280;48597;49.030;1.822;2023-05-09T00:33:42;100958.00;;;20.67;50.88
62544;BME280;48597;49.030;1.822;2023-05-09T00:36:07;100955.13;;;20.67;50.92
62544;BME280;48597;49.030;1.822;2023-05-09T00:38:32;100950.66;;;20.66;50.68
62544;BME280;48597;49.030;1.822;2023-05-09T00:40:58;100942.06;;;20.66;50.85
62544;BME280;48597;49.030;1.822;2023-05-09T00:43:23;100938.41;;;20.65;50.99
62544;BME280;48597;49.030;1.822;2023-05-09T00:45:49;100929.81;;;20.65;50.71
62544;BME280;48597;49.030;1.822;2023-05-09T00:48:15;100923.28;;;20.65;50.67
62544;BME280;48597;49.030;1.822;2023-05-09T00:50:40;100911.81;;;20.65;50.68
62544;BME280;48597;49.030;1.822;2023-05-09T00:53:06;100922.47;;;20.64;50.62
62544;BME280;48597;49.030;1.822;2023-05-09T00:55:32;100919.59;;;20.64;50.66
62544;BME280;48597;49.030;1.822;2023-05-09T00:57:58;100910.25;;;20.64;50.68
62544;BME280;48597;49.030;1.822;2023-05-09T01:00:23;100918.03;;;20.63;50.66
62544;BME280;48597;49.030;1.822;2023-05-09T01:02:51;100908.63;;;20.63;50.73
62544;BME280;48597;49.030;1.822;2023-05-09T01:05:18;100904.97;;;20.62;50.60
62544;BME280;48597;49.030;1.822;2023-05-09T01:15:54;100882.97;;;20.59;50.66
62544;BME280;48597;49.030;1.822;2023-05-09T01:18:48;100880.09;;;20.59;50.64
62544;BME280;48597;49.030;1.822;2023-05-09T01:21:19;100884.22;;;20.58;50.77
62544;BME280;48597;49.030;1.822;2023-05-09T01:24:08;100883.41;;;20.58;50.56
62544;BME280;48597;49.030;1.822;2023-05-09T01:26:50;100878.50;;;20.58;50.81
62544;BME280;48597;49.030;1.822;2023-05-09T01:29:33;100873.56;;;20.59;50.52
62544;BME280;48597;49.030;1.822;2023-05-09T01:32:08;100871.97;;;20.58;50.24
62544;BME280;48597;49.030;1.822;2023-05-09T01:34:34;100873.22;;;20.57;50.69
62544;BME280;48597;49.030;1.822;2023-05-09T01:37:03;100866.22;;;20.58;50.74
62544;BME280;48597;49.030;1.822;2023-05-09T01:39:32;100858.91;;;20.57;50.53
62544;BME280;48597;49.030;1.822;2023-05-09T01:42:01;100858.91;;;20.57;50.60
62544;BME280;48597;49.030;1.822;2023-05-09T01:44:31;100858.09;;;20.56;50.64
62544;BME280;48597;49.030;1.822;2023-05-09T01:46:58;100856.47;;;20.55;50.60
62544;BME280;48597;49.030;1.822;2023-05-09T01:49:28;100848.69;;;20.56;50.64
62544;BME280;48597;49.030;1.822;2023-05-09T01:51:55;100843.78;;;20.56;50.55
62544;BME280;48597;49.030;1.822;2023-05-09T01:54:22;100852.38;;;20.56;50.50
62544;BME280;48597;49.030;1.822;2023-05-09T01:56:50;100840.91;;;20.56;50.59
62544;BME280;48597;49.030;1.822;2023-05-09T01:59:17;100838.03;;;20.56;50.49
62544;BME280;48597;49.030;1.822;2023-05-09T02:01:44;100845.84;;;20.56;50.45
62544;BME280;48597;49.030;1.822;2023-05-09T02:04:11;100848.69;;;20.56;50.43
62544;BME280;48597;49.030;1.822;2023-05-09T02:06:37;100842.16;;;20.55;50.45
62544;BME280;48597;49.030;1.822;2023-05-09T02:09:03;100839.31;;;20.55;50.49
62544;BME280;48597;49.030;1.822;2023-05-09T02:11:29;100844.22;;;20.55;50.33
62544;BME280;48597;49.030;1.822;2023-05-09T02:13:54;100835.63;;;20.55;50.38
62544;BME280;48597;49.030;1.822;2023-05-09T02:16:19;100831.97;;;20.54;50.63
62544;BME280;48597;49.030;1.822;2023-05-09T02:18:45;100835.28;;;20.53;50.56
62544;BME280;48597;49.030;1.822;2023-05-09T02:21:11;100836.88;;;20.54;50.49
62544;BME280;48597;49.030;1.822;2023-05-09T02:23:36;100826.69;;;20.53;50.49
62544;BME280;48597;49.030;1.822;2023-05-09T02:26:02;100842.63;;;20.54;50.41
62544;BME280;48597;49.030;1.822;2023-05-09T02:28:28;100829.56;;;20.53;50.52
62544;BME280;48597;49.030;1.822;2023-05-09T02:30:56;100836.09;;;20.53;50.42
62544;BME280;48597;49.030;1.822;2023-05-09T02:33:23;100826.69;;;20.53;50.40
62544;BME280;48597;49.030;1.822;2023-05-09T02:35:49;100832.41;;;20.53;50.52
62544;BME280;48597;49.030;1.822;2023-05-09T02:38:15;100829.56;;;20.53;50.51
62544;BME280;48597;49.030;1.822;2023-05-09T02:40:42;100824.63;;;20.53;50.45
62544;BME280;48597;49.030;1.822;2023-05-09T02:43:09;100822.22;;;20.52;50.52
62544;BME280;48597;49.030;1.822;2023-05-09T02:45:34;100819.38;;;20.52;50.23
62544;BME280;48597;49.030;1.822;2023-05-09T02:48:00;100811.25;;;20.50;50.52
62544;BME280;48597;49.030;1.822;2023-05-09T02:50:25;100816.50;;;20.52;50.28
62544;BME280;48597;49.030;1.822;2023-05-09T02:52:51;100803.47;;;20.51;50.45
62544;BME280;48597;49.030;1.822;2023-05-09T02:55:16;100818.56;;;20.51;50.21
62544;BME280;48597;49.030;1.822;2023-05-09T02:57:42;100812.06;;;20.51;50.17
62544;BME280;48597;49.030;1.822;2023-05-09T03:00:08;100809.97;;;20.51;50.37
62544;BME280;48597;49.030;1.822;2023-05-09T03:02:37;100814.13;;;20.50;50.26
62544;BME280;48597;49.030;1.822;2023-05-09T03:05:03;100808.38;;;20.50;50.27
62544;BME280;48597;49.030;1.822;2023-05-09T03:07:29;100811.25;;;20.50;50.46
62544;BME280;48597;49.030;1.822;2023-05-09T03:09:55;100815.38;;;20.49;50.25
62544;BME280;48597;49.030;1.822;2023-05-09T03:12:20;100807.59;;;20.50;50.27
62544;BME280;48597;49.030;1.822;2023-05-09T03:14:45;100803.91;;;20.49;50.47
62544;BME280;48597;49.030;1.822;2023-05-09T03:17:11;100801.84;;;20.50;50.21
62544;BME280;48597;49.030;1.822;2023-05-09T03:19:36;100801.50;;;20.48;50.26
62544;BME280;48597;49.030;1.822;2023-05-09T03:22:02;100802.31;;;20.48;50.39
62544;BME280;48597;49.030;1.822;2023-05-09T03:24:27;100792.91;;;20.48;50.17
62544;BME280;48597;49.030;1.822;2023-05-09T03:26:53;100787.19;;;20.48;50.19
62544;BME280;48597;49.030;1.822;2023-05-09T03:29:18;100787.19;;;20.48;50.29
62544;BME280;48597;49.030;1.822;2023-05-09T03:31:43;100780.66;;;20.47;50.21
62544;BME280;48597;49.030;1.822;2023-05-09T03:34:10;100783.53;;;20.47;50.14
62544;BME280;48597;49.030;1.822;2023-05-09T03:36:40;100785.13;;;20.48;50.23
62544;BME280;48597;49.030;1.822;2023-05-09T03:39:07;100777.81;;;20.47;50.26
62544;BME280;48597;49.030;1.822;2023-05-09T03:41:34;100774.13;;;20.47;50.08
62544;BME280;48597;49.030;1.822;2023-05-09T03:44:00;100762.69;;;20.47;50.29
62544;BME280;48597;49.030;1.822;2023-05-09T03:46:26;100768.41;;;20.47;50.04
62544;BME280;48597;49.030;1.822;2023-05-09T03:48:51;100760.28;;;20.45;50.13
62544;BME280;48597;49.030;1.822;2023-05-09T03:51:17;100761.88;;;20.46;49.98
62544;BME280;48597;49.030;1.822;2023-05-09T03:53:44;100751.22;;;20.47;50.05
62544;BME280;48597;49.030;1.822;2023-05-09T03:56:10;100743.09;;;20.45;50.02
62544;BME280;48597;49.030;1.822;2023-05-09T03:58:35;100752.50;;;20.46;50.19
62544;BME280;48597;49.030;1.822;2023-05-09T04:01:01;100745.97;;;20.45;50.11
62544;BME280;48597;49.030;1.822;2023-05-09T04:03:26;100742.28;;;20.45;49.95
62544;BME280;48597;49.030;1.822;2023-05-09T04:05:52;100739.44;;;20.45;50.15
62544;BME280;48597;49.030;1.822;2023-05-09T04:08:18;100738.63;;;20.44;50.05
62544;BME280;48597;49.030;1.822;2023-05-09T04:10:43;100729.25;;;20.44;50.00
62544;BME280;48597;49.030;1.822;2023-05-09T04:13:09;100742.28;;;20.45;50.01
62544;BME280;48597;49.030;1.822;2023-05-09T04:15:35;100732.09;;;20.44;49.99
62544;BME280;48597;49.030;1.822;2023-05-09T04:18:00;100730.50;;;20.43;50.02
62544;BME280;48597;49.030;1.822;2023-05-09T04:20:26;100728.44;;;20.43;50.01
62544;BME280;48597;49.030;1.822;2023-05-09T04:22:51;100724.75;;;20.43;50.13
62544;BME280;48597;49.030;1.822;2023-05-09T04:25:17;100721.91;;;20.43;49.98
62544;BME280;48597;49.030;1.822;2023-05-09T04:27:44;100709.66;;;20.42;50.08
62544;BME280;48597;49.030;1.822;2023-05-09T04:30:10;100710.44;;;20.43;50.11
62544;BME280;48597;49.030;1.822;2023-05-09T04:32:35;100716.19;;;20.43;50.11
62544;BME280;48597;49.030;1.822;2023-05-09T04:35:01;100706.78;;;20.42;50.02
62544;BME280;48597;49.030;1.822;2023-05-09T04:37:27;100701.06;;;20.42;49.90
62544;BME280;48597;49.030;1.822;2023-05-09T04:39:53;100705.19;;;20.41;49.84
62544;BME280;48597;49.030;1.822;2023-05-09T04:42:18;100685.94;;;20.42;50.00
62544;BME280;48597;49.030;1.822;2023-05-09T04:44:43;100695.78;;;20.41;49.87
62544;BME280;48597;49.030;1.822;2023-05-09T04:47:09;100694.53;;;20.42;49.81
62544;BME280;48597;49.030;1.822;2023-05-09T04:49:34;100688.81;;;20.42;50.23
62544;BME280;48597;49.030;1.822;2023-05-09T04:51:59;100697.84;;;20.40;49.79
62544;BME280;48597;49.030;1.822;2023-05-09T04:54:25;100687.19;;;20.41;50.10
62544;BME280;48597;49.030;1.822;2023-05-09T04:56:51;100688.47;;;20.40;50.16
62544;BME280;48597;49.030;1.822;2023-05-09T04:59:16;100682.72;;;20.40;50.02
62544;BME280;48597;49.030;1.822;2023-05-09T05:01:42;100684.34;;;20.41;49.95
62544;BME280;48597;49.030;1.822;2023-05-09T05:04:07;100692.94;;;20.41;50.07
62544;BME280;48597;49.030;1.822;2023-05-09T05:06:33;100675.41;;;20.39;50.17
62544;BME280;48597;49.030;1.822;2023-05-09T05:08:58;100678.25;;;20.39;50.49
62544;BME280;48597;49.030;1.822;2023-05-09T05:11:23;100679.56;;;20.38;50.62
62544;BME280;48597;49.030;1.822;2023-05-09T05:13:49;100678.25;;;20.39;50.36
62544;BME280;48597;49.030;1.822;2023-05-09T05:16:14;100675.41;;;20.39;50.79
62544;BME280;48597;49.030;1.822;2023-05-09T05:18:39;100671.78;;;20.38;50.87
62544;BME280;48597;49.030;1.822;2023-05-09T05:21:05;100664.44;;;20.37;50.55
62544;BME280;48597;49.030;1.822;2023-05-09T05:23:30;100670.97;;;20.38;50.44
62544;BME280;48597;49.030;1.822;2023-05-09T05:25:55;100673.03;;;20.37;50.41
62544;BME280;48597;49.030;1.822;2023-05-09T05:28:21;100670.97;;;20.38;50.88
62544;BME280;48597;49.030;1.822;2023-05-09T05:30:46;100668.09;;;20.38;50.86
62544;BME280;48597;49.030;1.822;2023-05-09T05:33:12;100663.19;;;20.38;50.87
62544;BME280;48597;49.030;1.822;2023-05-09T05:35:37;100662.38;;;20.38;50.73
62544;BME280;48597;49.030;1.822;2023-05-09T05:38:03;100658.72;;;20.37;51.16
62544;BME280;48597;49.030;1.822;2023-05-09T05:40:28;100661.09;;;20.39;50.84
62544;BME280;48597;49.030;1.822;2023-05-09T05:42:54;100656.66;;;20.38;51.14
62544;BME280;48597;49.030;1.822;2023-05-09T05:45:19;100656.66;;;20.38;50.92
62544;BME280;48597;49.030;1.822;2023-05-09T05:47:45;100656.66;;;20.38;51.11
62544;BME280;48597;49.030;1.822;2023-05-09T05:50:10;100649.63;;;20.39;51.18
62544;BME280;48597;49.030;1.822;2023-05-09T05:52:39;100649.97;;;20.41;51.15
62544;BME280;48597;49.030;1.822;2023-05-09T05:55:06;100647.56;;;20.39;51.17
62544;BME280;48597;49.030;1.822;2023-05-09T05:57:32;100646.78;;;20.39;51.41
62544;BME280;48597;49.030;1.822;2023-05-09T05:59:58;100640.59;;;20.40;51.28
62544;BME280;48597;49.030;1.822;2023-05-09T06:02:24;100639.34;;;20.41;51.41
62544;BME280;48597;49.030;1.822;2023-05-09T06:04:49;100640.13;;;20.42;51.63
62544;BME280;48597;49.030;1.822;2023-05-09T06:07:14;100636.00;;;20.43;51.62
62544;BME280;48597;49.030;1.822;2023-05-09T06:09:40;100632.34;;;20.42;51.67
62544;BME280;48597;49.030;1.822;2023-05-09T06:12:05;100639.69;;;20.43;51.84
62544;BME280;48597;49.030;1.822;2023-05-09T06:14:31;100631.09;;;20.43;51.70
62544;BME280;48597;49.030;1.822;2023-05-09T06:16:57;100626.16;;;20.44;51.77
62544;BME280;48597;49.030;1.822;2023-05-09T06:19:22;100615.53;;;20.44;51.96
62544;BME280;48597;49.030;1.822;2023-05-09T06:21:48;100615.53;;;20.44;52.02
62544;BME280;48597;49.030;1.822;2023-05-09T06:24:13;100611.41;;;20.45;51.94
62544;BME280;48597;49.030;1.822;2023-05-09T06:26:38;100617.94;;;20.46;52.28
62544;BME280;48597;49.030;1.822;2023-05-09T06:29:04;100613.00;;;20.46;52.16
62544;BME280;48597;49.030;1.822;2023-05-09T06:31:30;100610.94;;;20.47;52.09
62544;BME280;48597;49.030;1.822;2023-05-09T06:33:56;100608.88;;;20.47;52.26
62544;BME280;48597;49.030;1.822;2023-05-09T06:36:21;100601.91;;;20.48;52.18
62544;BME280;48597;49.030;1.822;2023-05-09T06:38:47;100610.47;;;20.48;52.42
62544;BME280;48597;49.030;1.822;2023-05-09T06:41:12;100608.41;;;20.49;52.39
62544;BME280;48597;49.030;1.822;2023-05-09T06:43:37;100597.78;;;20.49;52.39
62544;BME280;48597;49.030;1.822;2023-05-09T06:46:03;100596.50;;;20.50;52.66
62544;BME280;48597;49.030;1.822;2023-05-09T06:48:28;100587.13;;;20.50;52.49
62544;BME280;48597;49.030;1.822;2023-05-09T06:50:53;100587.13;;;20.50;52.57
62544;BME280;48597;49.030;1.822;2023-05-09T06:53:19;100591.09;;;20.52;52.63
62544;BME280;48597;49.030;1.822;2023-05-09T06:55:44;100584.56;;;20.52;52.70
62544;BME280;48597;49.030;1.822;2023-05-09T06:58:10;100588.22;;;20.52;52.64
62544;BME280;48597;49.030;1.822;2023-05-09T07:00:36;100587.44;;;20.52;52.65
62544;BME280;48597;49.030;1.822;2023-05-09T07:03:01;100574.72;;;20.53;52.64
62544;BME280;48597;49.030;1.822;2023-05-09T07:05:27;100573.91;;;20.52;52.42
62544;BME280;48597;49.030;1.822;2023-05-09T07:07:52;100566.13;;;20.53;52.62
62544;BME280;48597;49.030;1.822;2023-05-09T07:10:21;100566.94;;;20.53;52.71
62544;BME280;48597;49.030;1.822;2023-05-09T07:12:46;100569.34;;;20.55;52.67
62544;BME280;48597;49.030;1.822;2023-05-09T07:15:12;100571.41;;;20.54;52.48
62544;BME280;48597;49.030;1.822;2023-05-09T07:17:37;100562.00;;;20.54;52.67
62544;BME280;48597;49.030;1.822;2023-05-09T07:20:03;100562.00;;;20.54;52.54
62544;BME280;48597;49.030;1.822;2023-05-09T07:22:29;100555.47;;;20.53;52.20
62544;BME280;48597;49.030;1.822;2023-05-09T07:24:54;100554.22;;;20.54;52.31
62544;BME280;48597;49.030;1.822;2023-05-09T07:27:19;100552.16;;;20.55;52.24
62544;BME280;48597;49.030;1.822;2023-05-09T07:29:45;100548.03;;;20.56;52.12
62544;BME280;48597;49.030;1.822;2023-05-09T07:32:10;100552.16;;;20.55;52.29
62544;BME280;48597;49.030;1.822;2023-05-09T07:34:36;100544.38;;;20.55;52.29
62544;BME280;48597;49.030;1.822;2023-05-09T07:37:01;100541.50;;;20.55;52.31
62544;BME280;48597;49.030;1.822;2023-05-09T07:39:26;100535.78;;;20.55;52.25
62544;BME280;48597;49.030;1.822;2023-05-09T07:41:52;100532.91;;;20.55;52.04
62544;BME280;48597;49.030;1.822;2023-05-09T07:44:17;100535.78;;;20.55;52.25
62544;BME280;48597;49.030;1.822;2023-05-09T07:46:42;100536.56;;;20.56;52.44
62544;BME280;48597;49.030;1.822;2023-05-09T07:49:08;100534.50;;;20.56;52.46
62544;BME280;48597;49.030;1.822;2023-05-09T07:51:33;100528.78;;;20.56;52.34
62544;BME280;48597;49.030;1.822;2023-05-09T07:53:58;100532.91;;;20.55;52.19
62544;BME280;48597;49.030;1.822;2023-05-09T07:56:24;100531.66;;;20.56;52.12
62544;BME280;48597;49.030;1.822;2023-05-09T07:58:50;100531.66;;;20.56;52.15
62544;BME280;48597;49.030;1.822;2023-05-09T08:01:16;100535.31;;;20.57;51.94
62544;BME280;48597;49.030;1.822;2023-05-09T08:03:41;100525.13;;;20.56;52.07
62544;BME280;48597;49.030;1.822;2023-05-09T08:06:06;100523.84;;;20.57;52.09
62544;BME280;48597;49.030;1.822;2023-05-09T08:08:32;100516.53;;;20.56;52.12
62544;BME280;48597;49.030;1.822;2023-05-09T08:10:57;100511.59;;;20.56;51.93
62544;BME280;48597;49.030;1.822;2023-05-09T08:13:23;100506.69;;;20.57;51.96
62544;BME280;48597;49.030;1.822;2023-05-09T08:15:49;100508.75;;;20.56;51.91
62544;BME280;48597;49.030;1.822;2023-05-09T08:18:14;100521.00;;;20.57;52.31
62544;BME280;48597;49.030;1.822;2023-05-09T08:20:40;100503.81;;;20.57;52.08
62544;BME280;48597;49.030;1.822;2023-05-09T08:23:05;100501.75;;;20.57;52.01
62544;BME280;48597;49.030;1.822;2023-05-09T08:25:31;100510.34;;;20.57;51.91
62544;BME280;48597;49.030;1.822;2023-05-09T08:27:56;100504.63;;;20.57;51.97
62544;BME280;48597;49.030;1.822;2023-05-09T08:30:22;100503.81;;;20.57;52.01
62544;BME280;48597;49.030;1.822;2023-05-09T08:32:47;100506.69;;;20.57;51.77
62544;BME280;48597;49.030;1.822;2023-05-09T08:35:12;100503.00;;;20.56;51.87
62544;BME280;48597;49.030;1.822;2023-05-09T08:37:38;100503.81;;;20.57;51.99
62544;BME280;48597;49.030;1.822;2023-05-09T08:40:04;100497.28;;;20.56;51.92
62544;BME280;48597;49.030;1.822;2023-05-09T08:42:35;100500.94;;;20.57;51.76
62544;BME280;48597;49.030;1.822;2023-05-09T08:45:05;100493.97;;;20.58;51.82
62544;BME280;48597;49.030;1.822;2023-05-09T08:47:34;100494.44;;;20.56;52.02
62544;BME280;48597;49.030;1.822;2023-05-09T08:50:02;100496.03;;;20.57;51.97
62544;BME280;48597;49.030;1.822;2023-05-09T08:52:29;100486.63;;;20.57;51.91
62544;BME280;48597;49.030;1.822;2023-05-09T08:54:55;100486.63;;;20.57;52.00
62544;BME280;48597;49.030;1.822;2023-05-09T08:57:21;100482.16;;;20.56;52.02
62544;BME280;48597;49.030;1.822;2023-05-09T08:59:48;100482.97;;;20.56;52.02
62544;BME280;48597;49.030;1.822;2023-05-09T09:02:13;100485.84;;;20.56;51.84
62544;BME280;48597;49.030;1.822;2023-05-09T09:04:39;100482.16;;;20.56;52.02
62544;BME280;48597;49.030;1.822;2023-05-09T09:07:05;100489.50;;;20.57;52.00
62544;BME280;48597;49.030;1.822;2023-05-09T09:09:32;100478.03;;;20.57;52.15
62544;BME280;48597;49.030;1.822;2023-05-09T09:12:01;100474.38;;;20.56;52.08
62544;BME280;48597;49.030;1.822;2023-05-09T09:14:28;100470.72;;;20.56;52.04
62544;BME280;48597;49.030;1.822;2023-05-09T09:16:56;100469.91;;;20.55;51.95
62544;BME280;48597;49.030;1.822;2023-05-09T09:19:27;100479.31;;;20.56;51.90
62544;BME280;48597;49.030;1.822;2023-05-09T09:21:54;100465.44;;;20.54;52.05
62544;BME280;48597;49.030;1.822;2023-05-09T09:24:23;100480.56;;;20.55;52.14
62544;BME280;48597;49.030;1.822;2023-05-09T09:26:49;100478.50;;;20.55;52.00
62544;BME280;48597;49.030;1.822;2023-05-09T09:29:16;100471.97;;;20.55;52.12
62544;BME280;48597;49.030;1.822;2023-05-09T09:31:44;100471.19;;;20.54;52.09
62544;BME280;48597;49.030;1.822;2023-05-09T09:34:12;100468.31;;;20.54;52.02
62544;BME280;48597;49.030;1.822;2023-05-09T09:36:41;100482.63;;;20.54;52.13
62544;BME280;48597;49.030;1.822;2023-05-09T09:39:06;100481.81;;;20.54;52.18
62544;BME280;48597;49.030;1.822;2023-05-09T09:41:37;100481.38;;;20.55;52.21
62544;BME280;48597;49.030;1.822;2023-05-09T09:44:13;100476.91;;;20.54;51.99
62544;BME280;48597;49.030;1.822;2023-05-09T09:46:53;100462.59;;;20.54;52.05
62544;BME280;48597;49.030;1.822;2023-05-09T09:49:20;100460.19;;;20.53;52.31
62544;BME280;48597;49.030;1.822;2023-05-09T09:51:54;100467.06;;;20.55;52.03
62544;BME280;48597;49.030;1.822;2023-05-09T09:54:20;100463.84;;;20.53;52.01
62544;BME280;48597;49.030;1.822;2023-05-09T09:56:49;100456.88;;;20.54;52.25
62544;BME280;48597;49.030;1.822;2023-05-09T09:59:20;100455.25;;;20.53;52.15
62544;BME280;48597;49.030;1.822;2023-05-09T10:02:05;100456.53;;;20.52;52.12
62544;BME280;48597;49.030;1.822;2023-05-09T10:04:33;100450.34;;;20.54;51.97
62544;BME280;48597;49.030;1.822;2023-05-09T10:07:04;100453.66;;;20.52;52.06
62544;BME280;48597;49.030;1.822;2023-05-09T10:09:33;100451.59;;;20.53;52.11
62544;BME280;48597;49.030;1.822;2023-05-09T10:12:03;100447.13;;;20.52;52.29
62544;BME280;48597;49.030;1.822;2023-05-09T10:14:31;100449.19;;;20.51;52.18
62544;BME280;48597;49.030;1.822;2023-05-09T10:16:57;100441.41;;;20.52;52.33
62544;BME280;48597;49.030;1.822;2023-05-09T10:19:24;100447.94;;;20.52;52.13
62544;BME280;48597;49.030;1.822;2023-05-09T10:24:32;100439.34;;;20.52;52.27
62544;BME280;48597;49.030;1.822;2023-05-09T10:27:02;100436.97;;;20.51;52.26
62544;BME280;48597;49.030;1.822;2023-05-09T10:29:48;100432.81;;;20.52;52.27
62544;BME280;48597;49.030;1.822;2023-05-09T10:35:07;100439.03;;;20.50;52.33
62544;BME280;48597;49.030;1.822;2023-05-09T10:37:35;100435.38;;;20.50;52.34
62544;BME280;48597;49.030;1.822;2023-05-09T10:40:02;100439.03;;;20.50;52.27
62544;BME280;48597;49.030;1.822;2023-05-09T10:42:29;100435.38;;;20.50;52.21
62544;BME280;48597;49.030;1.822;2023-05-09T10:44:55;100440.28;;;20.49;52.31
62544;BME280;48597;49.030;1.822;2023-05-09T10:47:24;100429.66;;;20.50;52.26
62544;BME280;48597;49.030;1.822;2023-05-09T10:49:51;100428.84;;;20.49;52.34
62544;BME280;48597;49.030;1.822;2023-05-09T10:52:16;100428.03;;;20.49;52.38
62544;BME280;48597;49.030;1.822;2023-05-09T10:54:43;100429.66;;;20.50;52.33
62544;BME280;48597;49.030;1.822;2023-05-09T10:57:08;100417.41;;;20.49;52.35
62544;BME280;48597;49.030;1.822;2023-05-09T10:59:41;100428.84;;;20.49;52.39
62544;BME280;48597;49.030;1.822;2023-05-09T11:02:18;100421.53;;;20.48;52.29
62544;BME280;48597;49.030;1.822;2023-05-09T11:04:44;100412.94;;;20.48;52.59
62544;BME280;48597;49.030;1.822;2023-05-09T11:07:25;100412.94;;;20.48;52.28
62544;BME280;48597;49.030;1.822;2023-05-09T11:09:52;100423.13;;;20.49;52.49
62544;BME280;48597;49.030;1.822;2023-05-09T11:12:30;100415.78;;;20.48;52.48
62544;BME280;48597;49.030;1.822;2023-05-09T11:15:03;100416.59;;;20.49;52.34
62544;BME280;48597;49.030;1.822;2023-05-09T11:17:30;100415.78;;;20.48;52.37
62544;BME280;48597;49.030;1.822;2023-05-09T11:20:02;100407.22;;;20.48;52.39
62544;BME280;48597;49.030;1.822;2023-05-09T11:22:37;100410.06;;;20.48;52.58
62544;BME280;48597;49.030;1.822;2023-05-09T11:25:04;100408.47;;;20.47;52.33
62544;BME280;48597;49.030;1.822;2023-05-09T11:27:41;100406.41;;;20.48;52.35
62544;BME280;48597;49.030;1.822;2023-05-09T11:30:09;100410.06;;;20.48;52.58
62544;BME280;48597;49.030;1.822;2023-05-09T11:32:45;100409.25;;;20.48;52.27
62544;BME280;48597;49.030;1.822;2023-05-09T11:35:15;100401.94;;;20.47;52.23
62544;BME280;48597;49.030;1.822;2023-05-09T11:37:48;100401.94;;;20.47;52.49
62544;BME280;48597;49.030;1.822;2023-05-09T11:40:16;100402.75;;;20.47;52.53
62544;BME280;48597;49.030;1.822;2023-05-09T11:42:44;100409.72;;;20.46;52.47
62544;BME280;48597;49.030;1.822;2023-05-09T11:45:11;100406.41;;;20.48;52.57
62544;BME280;48597;49.030;1.822;2023-05-09T11:47:37;100400.69;;;20.48;52.50
62544;BME280;48597;49.030;1.822;2023-05-09T11:50:10;100395.75;;;20.48;52.46
62544;BME280;48597;49.030;1.822;2023-05-09T11:52:37;100397.00;;;20.47;52.37
62544;BME280;48597;49.030;1.822;2023-05-09T11:55:10;100395.75;;;20.48;52.42
62544;BME280;48597;49.030;1.822;2023-05-09T11:57:53;100388.44;;;20.47;52.37
62544;BME280;48597;49.030;1.822;2023-05-09T12:00:21;100397.00;;;20.47;52.55
62544;BME280;48597;49.030;1.822;2023-05-09T12:02:47;100388.44;;;20.47;52.41
62544;BME280;48597;49.030;1.822;2023-05-09T12:05:14;100396.22;;;20.47;52.57
62544;BME280;48597;49.030;1.822;2023-05-09T12:07:40;100393.34;;;20.47;52.47
62544;BME280;48597;49.030;1.822;2023-05-09T12:10:10;100390.50;;;20.47;52.47
62544;BME280;48597;49.030;1.822;2023-05-09T12:12:50;100400.69;;;20.48;52.28
62544;BME280;48597;49.030;1.822;2023-05-09T12:15:16;100399.06;;;20.47;52.55
62544;BME280;48597;49.030;1.822;2023-05-09T12:17:43;100399.06;;;20.47;52.58
62544;BME280;48597;49.030;1.822;2023-05-09T12:20:09;100396.22;;;20.47;52.54
62544;BME280;48597;49.030;1.822;2023-05-09T12:22:35;100401.94;;;20.47;52.54
62544;BME280;48597;49.030;1.822;2023-05-09T12:25:06;100396.22;;;20.47;52.31
62544;BME280;48597;49.030;1.822;2023-05-09T12:27:34;100401.94;;;20.47;52.53
62544;BME280;48597;49.030;1.822;2023-05-09T12:30:00;100394.63;;;20.46;52.56
62544;BME280;48597;49.030;1.822;2023-05-09T12:32:27;100397.47;;;20.46;52.64
62544;BME280;48597;49.030;1.822;2023-05-09T12:34:57;100400.34;;;20.46;52.52
62544;BME280;48597;49.030;1.822;2023-05-09T12:37:24;100406.06;;;20.46;52.36
62544;BME280;48597;49.030;1.822;2023-05-09T12:40:07;100410.53;;;20.47;52.41
62544;BME280;48597;49.030;1.822;2023-05-09T12:42:34;100405.25;;;20.45;52.63
62544;BME280;48597;49.030;1.822;2023-05-09T12:45:01;100402.41;;;20.45;52.62
62544;BME280;48597;49.030;1.822;2023-05-09T12:47:30;100413.41;;;20.47;52.76
62544;BME280;48597;49.030;1.822;2023-05-09T12:50:02;100412.59;;;20.46;52.80
62544;BME280;48597;49.030;1.822;2023-05-09T12:52:37;100420.38;;;20.46;52.64
62544;BME280;48597;49.030;1.822;2023-05-09T12:55:10;100412.59;;;20.46;52.66
62544;BME280;48597;49.030;1.822;2023-05-09T12:57:37;100408.94;;;20.46;52.99
62544;BME280;48597;49.030;1.822;2023-05-09T13:00:05;100403.22;;;20.46;52.94
62544;BME280;48597;49.030;1.822;2023-05-09T13:02:34;100411.78;;;20.46;52.99
62544;BME280;48597;49.030;1.822;2023-05-09T13:05:16;100411.78;;;20.46;52.81